Time;durP1;ratioP1;P1;durP2;ratioP2;P2;SDS_P1;SDS_P2;PMS_P1;PMS_P2;Temp;Humidity;BMP_temperature;BMP_pressure;BME280_temperature;BME280_humidity;BME280_pressure;Samples;Min_cycle;Max_cycle;Signal;HPM_P1;HPM_P2
2022/02/01 00:04:01;;;;;;;8.48;3.63;;;2.90;99.90;;;;;;6130049;28;20042;-81
2022/02/01 00:07:16;;;;;;;14.32;4.30;;;1.70;99.90;;;;;;6114934;29;20469;-81
2022/02/01 00:14:03;;;;;;;8.15;4.00;;;3.50;99.90;;;;;;6130795;29;20035;-80
2022/02/01 00:36:41;;;;;;;7.97;3.47;;;1.60;99.90;;;;;;6097599;29;20058;-80
2022/02/01 00:39:43;;;;;;;6.80;3.53;;;1.60;99.90;;;;;;6115116;29;20042;-83
2022/02/01 00:42:44;;;;;;;10.13;3.40;;;1.20;99.90;;;;;;6113868;29;20034;-83
2022/02/01 00:45:45;;;;;;;9.43;3.92;;;3.00;99.90;;;;;;6129732;28;20031;-84
2022/02/01 00:48:45;;;;;;;9.40;3.65;;;2.10;99.90;;;;;;6129812;29;20822;-81
2022/02/01 00:51:46;;;;;;;7.70;3.30;;;1.80;99.90;;;;;;6129408;29;20125;-80
2022/02/01 00:54:47;;;;;;;6.45;3.13;;;2.70;99.90;;;;;;6113895;29;20037;-81
2022/02/01 00:57:47;;;;;;;11.05;3.83;;;2.80;99.90;;;;;;6113095;28;20043;-82
2022/02/01 01:00:48;;;;;;;6.82;3.38;;;2.50;99.90;;;;;;6112716;29;20489;-80
2022/02/01 01:03:48;;;;;;;7.28;3.20;;;2.20;99.90;;;;;;6128817;29;20049;-81
2022/02/01 01:06:49;;;;;;;10.65;3.50;;;2.20;99.90;;;;;;6129502;29;20039;-80
2022/02/01 01:09:50;;;;;;;6.32;3.33;;;1.90;99.90;;;;;;6113206;29;20050;-81
2022/02/01 01:14:02;;;;;;;4.53;3.10;;;2.80;99.90;;;;;;6113347;29;20031;-81
2022/02/01 01:45:21;;;;;;;8.55;3.33;;;1.80;99.90;;;;;;6131507;29;20474;-82
2022/02/01 01:55:00;;;;;;;14.73;5.00;;;1.80;99.90;;;;;;6131754;29;20473;-81
2022/02/01 01:58:01;;;;;;;7.15;3.15;;;1.90;99.90;;;;;;6112812;29;20046;-82
2022/02/01 02:01:11;;;;;;;9.27;3.33;;;1.80;99.90;;;;;;6129028;29;20475;-80
2022/02/01 02:04:12;;;;;;;8.32;3.35;;;2.10;99.90;;;;;;6114016;29;20031;-81
2022/02/01 02:07:13;;;;;;;10.65;3.63;;;1.20;99.90;;;;;;6112787;29;20071;-81
2022/02/01 02:10:14;;;;;;;9.63;3.20;;;2.50;99.90;;;;;;6112658;29;20047;-80
2022/02/01 02:16:18;;;;;;;10.80;4.07;;;1.80;99.90;;;;;;6129003;29;20474;-81
2022/02/01 02:19:19;;;;;;;9.30;3.00;;;1.80;99.90;;;;;;6112412;29;20078;-81
2022/02/01 02:22:22;;;;;;;9.70;2.92;;;2.40;99.90;;;;;;6112348;29;20031;-80
2022/02/01 02:25:23;;;;;;;8.63;2.92;;;3.30;99.90;;;;;;6112762;29;20031;-82
2022/02/01 02:28:23;;;;;;;13.25;3.15;;;1.80;99.90;;;;;;6131327;29;20038;-81
2022/02/01 02:31:24;;;;;;;6.93;2.80;;;1.80;99.90;;;;;;6116363;28;20059;-81
2022/02/01 02:34:25;;;;;;;8.25;3.30;;;1.60;99.90;;;;;;6116822;29;20027;-84
2022/02/01 02:37:30;;;;;;;7.90;3.50;;;1.90;99.90;;;;;;6116253;29;20397;-82
2022/02/01 02:47:03;;;;;;;7.93;3.08;;;1.90;99.90;;;;;;6135266;28;20425;-81
2022/02/01 02:50:04;;;;;;;8.77;3.92;;;1.80;99.90;;;;;;6116512;28;20038;-81
2022/02/01 02:53:04;;;;;;;10.65;4.28;;;1.90;99.90;;;;;;6115932;29;20098;-81
2022/02/01 02:56:08;;;;;;;10.50;4.32;;;2.70;99.90;;;;;;6117386;29;20062;-83
2022/02/01 02:59:09;;;;;;;9.68;3.63;;;2.20;99.90;;;;;;6132343;29;20493;-81
2022/02/01 03:02:09;;;;;;;8.30;3.63;;;2.30;99.90;;;;;;6116483;29;20105;-81
2022/02/01 03:05:10;;;;;;;7.00;3.42;;;2.10;99.90;;;;;;6131805;29;20034;-80
2022/02/01 03:08:10;;;;;;;8.02;3.30;;;3.00;99.90;;;;;;6115700;29;20067;-82
2022/02/01 03:11:14;;;;;;;7.50;2.97;;;1.80;99.90;;;;;;6115807;29;20059;-81
2022/02/01 03:20:52;;;;;;;6.05;2.75;;;2.50;99.90;;;;;;6134479;29;20043;-80
2022/02/01 03:23:53;;;;;;;8.57;3.60;;;1.60;99.90;;;;;;6115867;28;20046;-80
2022/02/01 03:26:53;;;;;;;8.13;2.88;;;1.80;99.90;;;;;;6115609;29;20031;-80
2022/02/01 03:29:54;;;;;;;9.45;2.80;;;2.90;99.90;;;;;;6115076;29;20457;-81
2022/02/01 03:32:54;;;;;;;5.00;2.70;;;2.40;99.90;;;;;;6115662;29;20028;-81
2022/02/01 03:35:55;;;;;;;6.18;3.28;;;2.50;99.90;;;;;;6115217;28;20126;-81
2022/02/01 03:38:58;;;;;;;6.07;3.00;;;1.80;99.90;;;;;;6130543;29;20043;-81
2022/02/01 03:41:58;;;;;;;10.55;2.95;;;2.50;99.90;;;;;;6115569;29;20462;-80
2022/02/01 03:44:59;;;;;;;9.43;3.03;;;2.30;99.90;;;;;;6131222;28;20042;-80
2022/02/01 03:48:00;;;;;;;12.75;3.42;;;1.80;99.90;;;;;;6115214;29;20027;-81
2022/02/01 03:51:00;;;;;;;10.60;3.75;;;1.90;99.90;;;;;;6115171;29;20034;-80
2022/02/01 03:54:01;;;;;;;10.68;4.32;;;1.90;99.90;;;;;;6131157;29;20035;-82
2022/02/01 03:57:03;;;;;;;14.02;4.18;;;1.80;99.90;;;;;;6114642;29;20165;-80
2022/02/01 04:00:06;;;;;;;18.15;4.13;;;1.90;99.90;;;;;;6114847;29;20038;-81
2022/02/01 04:03:07;;;;;;;13.82;4.78;;;1.90;99.90;;;;;;6130475;29;20032;-80
2022/02/01 04:06:08;;;;;;;12.60;4.20;;;2.00;99.90;;;;;;6130346;29;20078;-81
2022/02/01 04:09:08;;;;;;;14.57;3.95;;;1.50;99.90;;;;;;6114547;28;20038;-81
2022/02/01 04:12:09;;;;;;;10.32;3.47;;;3.50;99.90;;;;;;6114460;29;20529;-80
2022/02/01 04:15:10;;;;;;;14.70;4.45;;;2.00;99.90;;;;;;6130540;29;20057;-80
2022/02/01 04:18:11;;;;;;;13.20;3.58;;;1.90;99.90;;;;;;6114219;29;20043;-80
2022/02/01 04:21:11;;;;;;;17.13;5.07;;;2.60;99.90;;;;;;6114699;29;20094;-80
2022/02/01 04:24:12;;;;;;;9.88;3.60;;;3.00;99.90;;;;;;6130458;28;20094;-83
2022/02/01 04:27:30;;;;;;;12.77;3.67;;;1.80;99.90;;;;;;6114364;29;20047;-81
2022/02/01 04:30:30;;;;;;;17.42;3.63;;;2.50;99.90;;;;;;6132626;28;20035;-80
2022/02/01 04:33:31;;;;;;;9.63;3.55;;;3.00;99.90;;;;;;6114267;29;20039;-80
2022/02/01 04:36:32;;;;;;;11.15;3.40;;;1.90;99.90;;;;;;6113924;29;20133;-84
2022/02/01 04:39:32;;;;;;;12.48;3.78;;;2.00;99.90;;;;;;6130125;29;20034;-83
2022/02/01 04:42:36;;;;;;;13.40;3.53;;;1.90;99.90;;;;;;6129717;29;20031;-80
2022/02/01 04:45:37;;;;;;;15.60;4.07;;;3.20;99.90;;;;;;6130640;29;20024;-83
2022/02/01 04:48:38;;;;;;;13.73;3.75;;;1.90;99.90;;;;;;6129816;29;20058;-80
2022/02/01 04:51:38;;;;;;;15.10;4.22;;;3.00;99.90;;;;;;6129844;29;20524;-81
2022/02/01 04:54:39;;;;;;;18.17;4.78;;;2.30;99.90;;;;;;6113713;29;20575;-81
2022/02/01 04:57:51;;;;;;;15.82;3.83;;;1.80;99.90;;;;;;6113370;28;20051;-82
2022/02/01 05:00:53;;;;;;;;;;;0.90;99.90;;;;;;6115906;29;20050;-80
2022/02/01 05:03:54;;;;;;;14.13;4.95;;;2.70;99.90;;;;;;6129443;29;19913;-80
2022/02/01 05:06:55;;;;;;;16.55;5.50;;;1.30;99.90;;;;;;6113783;29;20035;-82
2022/02/01 05:09:58;;;;;;;18.10;5.38;;;1.80;99.90;;;;;;6113217;29;20138;-81
2022/02/01 05:13:23;;;;;;;16.63;4.88;;;1.40;99.90;;;;;;6131362;29;20035;-79
2022/02/01 05:16:24;;;;;;;13.95;4.78;;;2.40;99.90;;;;;;6133302;29;20121;-80
2022/02/01 05:22:35;;;;;;;11.13;4.03;;;1.80;99.90;;;;;;6129726;28;20080;-81
2022/02/01 05:25:36;;;;;;;15.40;4.13;;;3.80;99.90;;;;;;6112827;29;20176;-81
2022/02/01 05:28:37;;;;;;;18.20;5.25;;;1.80;99.90;;;;;;6113247;29;20031;-80
2022/02/01 05:31:38;;;;;;;14.57;4.30;;;1.90;99.90;;;;;;6110159;29;20067;-84
2022/02/01 05:34:39;;;;;;;12.38;3.88;;;1.90;99.90;;;;;;6113072;28;20032;-81
2022/02/01 05:37:40;;;;;;;20.08;4.30;;;1.90;99.90;;;;;;6113078;29;20043;-82
2022/02/01 05:40:40;;;;;;;13.27;4.18;;;3.10;99.90;;;;;;6112475;29;20082;-80
2022/02/01 05:43:43;;;;;;;19.50;4.70;;;2.00;99.90;;;;;;6128975;29;20111;-82
2022/02/01 05:46:43;;;;;;;24.02;6.95;;;2.70;99.90;;;;;;6129347;29;20031;-81
2022/02/01 05:49:44;;;;;;;12.10;4.13;;;3.40;99.90;;;;;;6128185;29;20118;-80
2022/02/01 05:52:45;;;;;;;18.08;5.00;;;1.80;99.90;;;;;;6126440;29;20031;-77
2022/02/01 05:55:49;;;;;;;27.50;4.30;;;1.80;99.90;;;;;;6125067;29;21354;-77
2022/02/01 05:58:49;;;;;;;12.98;4.00;;;3.00;99.90;;;;;;6111145;29;20446;-77
2022/02/01 06:01:50;;;;;;;13.13;3.83;;;2.60;99.90;;;;;;6144080;28;20035;-82
2022/02/01 06:04:51;;;;;;;18.05;5.05;;;2.90;99.90;;;;;;6114980;29;20097;-79
2022/02/01 06:07:51;;;;;;;12.32;3.65;;;2.40;99.90;;;;;;6115368;28;20043;-79
2022/02/01 06:10:52;;;;;;;16.10;4.60;;;2.30;99.90;;;;;;6116633;29;20059;-81
2022/02/01 06:13:52;;;;;;;10.80;3.95;;;2.20;99.90;;;;;;6133657;29;20039;-80
2022/02/01 06:16:53;;;;;;;15.98;3.95;;;3.50;99.90;;;;;;6116950;28;20043;-82
2022/02/01 06:19:53;;;;;;;10.05;3.65;;;3.70;99.90;;;;;;6117013;29;20043;-83
2022/02/01 06:22:54;;;;;;;17.23;4.18;;;2.40;99.90;;;;;;6117286;29;20101;-84
2022/02/01 06:25:56;;;;;;;15.23;4.30;;;2.60;99.90;;;;;;6117282;29;20151;-83
2022/02/01 06:28:56;;;;;;;13.37;4.37;;;1.90;99.90;;;;;;6117667;29;20716;-85
2022/02/01 06:31:57;;;;;;;11.02;3.70;;;3.60;99.90;;;;;;6117485;29;20062;-83
2022/02/01 06:34:58;;;;;;;13.00;4.55;;;1.80;99.90;;;;;;6128630;28;20144;-84
2022/02/01 06:37:58;;;;;;;12.80;3.67;;;3.10;99.90;;;;;;6129832;29;20129;-81
2022/02/01 06:40:59;;;;;;;14.10;4.55;;;1.80;99.90;;;;;;6111777;29;20520;-80
2022/02/01 06:44:01;;;;;;;21.30;4.38;;;2.90;99.90;;;;;;6110061;29;20090;-82
2022/02/01 06:47:02;;;;;;;15.80;4.05;;;2.40;99.90;;;;;;6111855;29;20413;-84
2022/02/01 06:50:03;;;;;;;14.93;4.68;;;1.80;99.90;;;;;;6111490;28;20042;-82
2022/02/01 06:53:06;;;;;;;26.38;5.03;;;1.80;99.90;;;;;;6129606;29;20074;-83
2022/02/01 06:56:09;;;;;;;21.27;4.47;;;3.50;99.90;;;;;;6113648;29;20090;-82
2022/02/01 06:59:10;;;;;;;15.60;4.35;;;1.70;99.90;;;;;;6097296;29;20043;-84
2022/02/01 07:02:10;;;;;;;12.77;3.67;;;2.40;99.90;;;;;;6128297;29;20031;-81
2022/02/01 07:05:11;;;;;;;13.52;3.67;;;3.70;99.90;;;;;;6112138;29;20079;-82
2022/02/01 07:08:11;;;;;;;14.88;3.97;;;2.50;99.90;;;;;;6112971;29;20058;-82
2022/02/01 07:11:12;;;;;;;16.25;4.22;;;2.10;99.90;;;;;;6128221;29;20043;-81
2022/02/01 07:14:13;;;;;;;15.73;5.57;;;2.10;99.90;;;;;;6113160;29;20082;-81
2022/02/01 07:17:13;;;;;;;120.18;59.33;;;2.60;99.90;;;;;;6113380;29;20397;-82
2022/02/01 07:20:17;;;;;;;33.75;15.20;;;1.50;99.90;;;;;;6128907;29;20023;-83
2022/02/01 07:23:22;;;;;;;13.20;4.65;;;2.00;99.90;;;;;;6129352;28;20058;-81
2022/02/01 07:26:23;;;;;;;12.85;4.18;;;2.30;99.90;;;;;;6113655;29;20039;-81
2022/02/01 07:29:24;;;;;;;10.70;3.60;;;1.80;99.90;;;;;;6112622;28;20704;-84
2022/02/01 07:32:25;;;;;;;8.80;4.28;;;1.80;99.90;;;;;;6111363;29;20061;-81
2022/02/01 07:35:26;;;;;;;12.55;4.35;;;2.10;99.90;;;;;;6113398;29;20136;-82
2022/02/01 07:38:26;;;;;;;16.05;4.93;;;1.80;99.90;;;;;;6112877;29;20054;-83
2022/02/01 07:41:27;;;;;;;10.68;4.15;;;1.80;99.90;;;;;;6128132;29;20477;-83
2022/02/01 07:44:28;;;;;;;11.77;4.75;;;1.80;99.90;;;;;;6128606;29;20097;-83
2022/02/01 07:47:28;;;;;;;16.98;4.75;;;3.40;99.90;;;;;;6128536;29;20055;-84
2022/02/01 07:50:29;;;;;;;12.98;4.88;;;2.60;99.90;;;;;;6128618;29;20035;-82
2022/02/01 07:53:30;;;;;;;13.18;4.40;;;1.90;99.90;;;;;;6130655;29;20036;-82
2022/02/01 07:56:30;;;;;;;33.83;14.07;;;1.50;99.90;;;;;;6130967;28;20710;-81
2022/02/01 07:59:31;;;;;;;21.15;7.72;;;2.70;99.90;;;;;;6130535;29;20050;-80
2022/02/01 08:02:33;;;;;;;19.10;7.95;;;2.10;99.90;;;;;;6129022;28;20031;-81
2022/02/01 08:05:34;;;;;;;22.25;10.10;;;2.30;99.90;;;;;;6112602;29;20363;-81
2022/02/01 08:08:34;;;;;;;15.43;6.03;;;3.60;99.90;;;;;;6127870;29;20031;-81
2022/02/01 08:11:35;;;;;;;13.50;6.50;;;2.00;99.90;;;;;;6111892;28;20058;-82
2022/02/01 08:20:48;;;;;;;13.63;4.25;;;1.70;99.90;;;;;;6126967;29;20090;-82
2022/02/01 08:23:49;;;;;;;13.35;4.22;;;2.50;99.90;;;;;;6128487;29;20054;-80
2022/02/01 08:26:50;;;;;;;17.33;6.57;;;3.00;99.90;;;;;;6111025;29;20051;-82
2022/02/01 08:29:50;;;;;;;17.08;7.22;;;2.20;99.90;;;;;;6109928;29;20099;-79
2022/02/01 08:32:51;;;;;;;13.05;7.15;;;2.20;99.90;;;;;;6097433;29;20039;-79
2022/02/01 08:35:52;;;;;;;11.80;4.97;;;3.20;99.90;;;;;;6128944;29;20736;-79
2022/02/01 08:38:54;;;;;;;15.02;4.60;;;2.20;99.90;;;;;;6113398;29;20039;-79
2022/02/01 08:41:55;;;;;;;16.35;3.92;;;3.80;99.90;;;;;;6111919;28;20024;-79
2022/02/01 08:44:56;;;;;;;10.32;3.90;;;2.90;99.90;;;;;;6125104;29;20084;-79
2022/02/01 08:47:57;;;;;;;14.07;4.57;;;1.50;99.90;;;;;;6128400;29;20117;-79
2022/02/01 08:51:03;;;;;;;10.30;3.72;;;2.70;99.90;;;;;;6129234;29;20031;-78
2022/02/01 08:54:11;;;;;;;7.85;3.75;;;2.10;99.90;;;;;;6130057;29;20027;-81
2022/02/01 08:57:21;;;;;;;17.80;3.95;;;2.20;99.90;;;;;;6130035;28;20047;-82
2022/02/01 09:00:22;;;;;;;11.82;3.92;;;2.80;99.90;;;;;;6114339;29;20129;-79
2022/02/01 09:03:23;;;;;;;10.98;3.42;;;3.70;99.90;;;;;;6109363;29;20035;-81
2022/02/01 09:06:24;;;;;;;10.17;3.20;;;2.30;99.90;;;;;;6126987;29;20035;-78
2022/02/01 09:09:26;;;;;;;12.68;4.32;;;2.70;99.90;;;;;;6125703;29;20172;-79
2022/02/01 09:12:26;;;;;;;12.67;3.97;;;2.80;99.90;;;;;;6110654;29;20036;-80
2022/02/01 09:15:28;;;;;;;13.30;4.47;;;2.80;99.90;;;;;;6126400;29;20046;-78
2022/02/01 09:18:29;;;;;;;13.35;5.05;;;2.80;99.90;;;;;;6125878;29;20684;-78
2022/02/01 09:21:29;;;;;;;10.38;4.65;;;3.00;99.90;;;;;;6126885;29;20486;-80
2022/02/01 09:24:30;;;;;;;8.45;3.63;;;3.00;99.90;;;;;;6126086;29;20031;-79
2022/02/01 09:27:30;;;;;;;10.07;3.45;;;3.30;99.90;;;;;;6124070;29;20086;-79
2022/02/01 09:30:32;;;;;;;10.15;2.90;;;3.30;99.90;;;;;;6125737;29;20194;-79
2022/02/01 09:33:33;;;;;;;13.03;4.83;;;3.20;99.90;;;;;;6126341;29;20169;-77
2022/02/01 09:36:33;;;;;;;10.18;3.45;;;2.60;99.90;;;;;;6110209;28;20027;-78
2022/02/01 09:39:34;;;;;;;5.93;3.05;;;3.40;99.90;;;;;;6130123;29;20401;-80
2022/02/01 09:42:38;;;;;;;8.52;4.15;;;3.50;99.90;;;;;;6129990;28;20031;-80
2022/02/01 09:45:39;;;;;;;11.70;3.88;;;3.70;99.90;;;;;;6131515;29;20030;-79
2022/02/01 09:48:39;;;;;;;10.40;3.50;;;4.20;99.90;;;;;;6132969;29;20031;-79
2022/02/01 09:51:40;;;;;;;14.50;4.93;;;3.90;99.90;;;;;;6133041;29;20035;-79
2022/02/01 09:54:41;;;;;;;12.73;3.80;;;3.90;99.90;;;;;;6116348;29;20027;-81
2022/02/01 09:57:44;;;;;;;9.90;3.42;;;4.00;99.90;;;;;;6113930;28;20070;-80
2022/02/01 10:00:47;;;;;;;9.93;3.35;;;4.00;99.90;;;;;;6115581;29;20038;-80
2022/02/01 10:04:05;;;;;;;10.27;3.25;;;4.70;99.90;;;;;;6130067;29;20027;-79
2022/02/01 10:07:09;;;;;;;8.52;3.30;;;4.30;99.90;;;;;;6127855;29;20078;-79
2022/02/01 10:10:10;;;;;;;8.65;3.05;;;4.40;99.90;;;;;;6108630;29;20619;-81
2022/02/01 10:13:16;;;;;;;11.55;3.40;;;4.50;99.90;;;;;;6124403;29;20040;-80
2022/02/01 10:16:29;;;;;;;11.68;3.30;;;4.40;99.90;;;;;;6124444;29;20031;-81
2022/02/01 10:19:29;;;;;;;9.55;4.00;;;4.40;99.90;;;;;;6109962;29;20060;-79
2022/02/01 10:22:32;;;;;;;14.63;4.88;;;4.50;99.90;;;;;;6124633;29;20364;-80
2022/02/01 10:25:32;;;;;;;10.80;3.85;;;4.60;99.90;;;;;;6117222;29;20091;-79
2022/02/01 10:29:02;;;;;;;11.27;3.67;;;4.60;99.90;;;;;;6119997;29;20032;-79
2022/02/01 10:32:34;;;;;;;11.13;4.70;;;4.70;99.90;;;;;;6102696;29;20104;-80
2022/02/01 10:38:54;;;;;;;9.00;3.90;;;5.10;99.90;;;;;;6123800;29;20902;-78
2022/02/01 10:41:59;;;;;;;14.73;5.50;;;4.70;99.90;;;;;;6123982;29;20038;-79
2022/02/01 10:45:00;;;;;;;14.00;5.30;;;4.60;99.90;;;;;;6120684;29;20032;-80
2022/02/01 10:48:10;;;;;;;9.55;4.28;;;6.20;99.90;;;;;;6123608;29;20027;-80
2022/02/01 10:51:22;;;;;;;23.70;11.55;;;4.70;99.90;;;;;;6107524;29;20520;-79
2022/02/01 10:54:23;;;;;;;8.60;3.60;;;4.80;99.90;;;;;;6103436;29;20662;-81
2022/02/01 10:57:23;;;;;;;11.10;4.97;;;4.70;99.90;;;;;;6084947;29;20043;-81
2022/02/01 11:00:24;;;;;;;11.80;4.78;;;4.60;99.90;;;;;;6102550;29;20814;-79
2022/02/01 11:03:25;;;;;;;10.07;3.67;;;4.50;99.90;;;;;;6117705;29;20086;-79
2022/02/01 11:06:25;;;;;;;5.63;2.80;;;4.90;99.90;;;;;;6107281;29;20038;-79
2022/02/01 11:09:30;;;;;;;12.50;3.55;;;5.70;99.90;;;;;;6111388;29;20078;-79
2022/02/01 11:12:36;;;;;;;9.18;3.40;;;5.00;99.90;;;;;;6115368;29;20041;-80
2022/02/01 11:15:37;;;;;;;7.85;3.05;;;4.60;99.90;;;;;;6131595;29;20035;-80
2022/02/01 11:18:38;;;;;;;5.45;2.70;;;4.80;99.90;;;;;;6131340;29;20489;-80
2022/02/01 11:21:47;;;;;;;8.75;4.18;;;4.20;99.90;;;;;;6114564;29;21440;-80
2022/02/01 11:24:53;;;;;;;8.73;3.17;;;4.20;99.90;;;;;;6131093;29;20034;-80
2022/02/01 11:28:11;;;;;;;7.90;3.03;;;4.20;99.90;;;;;;6115614;29;20031;-79
2022/02/01 11:31:12;;;;;;;7.53;3.08;;;4.10;99.90;;;;;;6133119;29;20035;-80
2022/02/01 11:34:27;;;;;;;9.82;3.00;;;4.10;99.90;;;;;;6115247;29;20393;-82
2022/02/01 11:37:28;;;;;;;7.57;3.17;;;4.10;99.90;;;;;;6130932;29;20063;-80
2022/02/01 11:40:37;;;;;;;7.88;3.85;;;4.00;99.90;;;;;;6115129;29;20098;-80
2022/02/01 11:43:38;;;;;;;6.20;3.30;;;3.80;99.90;;;;;;6130722;28;20035;-80
2022/02/01 11:46:48;;;;;;;8.95;3.25;;;3.70;99.90;;;;;;6131242;29;20447;-80
2022/02/01 11:49:50;;;;;;;8.73;3.20;;;3.40;99.90;;;;;;6113929;29;20533;-83
2022/02/01 11:52:53;;;;;;;9.18;2.90;;;3.80;99.90;;;;;;6131187;29;20027;-81
2022/02/01 11:55:54;;;;;;;8.30;3.58;;;3.40;99.90;;;;;;6114482;28;20031;-83
2022/02/01 11:58:59;;;;;;;9.82;4.93;;;3.50;99.90;;;;;;6128702;28;20062;-81
2022/02/01 12:02:06;;;;;;;7.65;2.90;;;3.40;99.90;;;;;;6113533;28;20076;-83
2022/02/01 12:05:14;;;;;;;11.65;3.53;;;4.20;99.90;;;;;;6130995;29;20023;-81
2022/02/01 12:08:15;;;;;;;6.00;3.00;;;3.50;99.90;;;;;;6130015;29;20035;-81
2022/02/01 12:11:16;;;;;;;9.57;3.40;;;5.00;99.90;;;;;;6114476;29;20051;-83
2022/02/01 12:14:16;;;;;;;9.70;3.30;;;3.30;99.90;;;;;;6115003;29;20489;-81
2022/02/01 12:17:17;;;;;;;8.25;4.20;;;3.30;99.90;;;;;;6113338;28;20042;-79
2022/02/01 12:20:18;;;;;;;7.47;3.25;;;3.70;99.90;;;;;;6128586;29;20110;-80
2022/02/01 12:23:23;;;;;;;8.57;4.35;;;3.80;99.90;;;;;;6112422;29;20086;-80
2022/02/01 12:26:23;;;;;;;19.13;9.32;;;3.80;99.90;;;;;;6113524;29;20035;-82
2022/02/01 12:29:25;;;;;;;8.32;3.38;;;3.30;99.90;;;;;;6146627;28;20066;-80
2022/02/01 12:32:25;;;;;;;8.90;4.35;;;3.70;99.90;;;;;;6130054;29;20078;-81
2022/02/01 12:35:31;;;;;;;6.80;4.13;;;3.60;99.90;;;;;;6129638;29;20031;-79
2022/02/01 12:38:32;;;;;;;10.25;5.53;;;3.70;99.90;;;;;;6097917;29;20078;-82
2022/02/01 12:41:42;;;;;;;8.35;5.07;;;3.70;99.90;;;;;;6113476;28;20126;-79
2022/02/01 12:47:43;;;;;;;7.32;3.38;;;3.60;99.90;;;;;;6129607;29;20494;-83
2022/02/01 12:50:58;;;;;;;10.30;2.95;;;3.50;99.90;;;;;;6113371;29;20027;-79
2022/02/01 12:53:58;;;;;;;10.25;5.28;;;4.60;99.90;;;;;;6106283;29;20036;-79
2022/02/01 12:57:12;;;;;;;10.30;3.97;;;3.50;99.90;;;;;;6111366;28;20046;-82
2022/02/01 13:00:17;;;;;;;7.03;2.70;;;3.60;99.90;;;;;;6129131;29;20035;-81
2022/02/01 13:03:18;;;;;;;4.32;2.67;;;3.50;99.90;;;;;;6127368;29;20058;-80
2022/02/01 13:06:18;;;;;;;5.13;2.55;;;3.50;99.90;;;;;;6129098;29;20031;-78
2022/02/01 13:23:07;;;;;;;3.60;3.08;;;3.60;99.90;;;;;;6132162;29;20051;-81
2022/02/01 13:26:18;;;;;;;7.22;3.17;;;3.50;99.90;;;;;;6129371;28;20390;-79
2022/02/01 13:29:19;;;;;;;7.53;3.63;;;3.50;99.90;;;;;;6113110;29;20036;-79
2022/02/01 13:32:20;;;;;;;6.95;2.50;;;3.70;99.90;;;;;;6111761;29;20477;-79
2022/02/01 13:35:20;;;;;;;5.32;3.00;;;3.60;99.90;;;;;;6112996;29;20071;-81
2022/02/01 13:38:24;;;;;;;7.97;3.50;;;3.60;99.90;;;;;;6128568;29;20039;-80
2022/02/01 13:41:26;;;;;;;6.43;2.33;;;3.60;99.90;;;;;;6128731;29;20035;-83
2022/02/01 13:44:30;;;;;;;8.55;2.70;;;3.70;99.90;;;;;;6111991;28;20024;-81
2022/02/01 13:47:41;;;;;;;3.58;2.40;;;3.70;99.90;;;;;;6113267;29;20074;-81
2022/02/01 13:50:43;;;;;;;5.88;2.60;;;3.70;99.90;;;;;;6110462;29;20457;-86
2022/02/01 13:53:43;;;;;;;3.77;2.23;;;3.70;99.90;;;;;;6127869;29;20059;-79
2022/02/01 13:56:50;;;;;;;5.97;2.80;;;3.80;99.90;;;;;;6145808;28;20271;-80
2022/02/01 13:59:50;;;;;;;4.90;2.10;;;3.70;99.90;;;;;;6129256;29;20031;-82
2022/02/01 14:02:57;;;;;;;4.85;2.70;;;3.70;99.90;;;;;;6128628;28;20027;-80
2022/02/01 14:06:09;;;;;;;3.58;2.60;;;3.70;99.90;;;;;;6128491;29;20588;-80
2022/02/01 14:28:44;;;;;;;8.95;2.50;;;3.80;99.90;;;;;;6135179;28;20043;-79
2022/02/01 14:35:04;;;;;;;6.28;2.13;;;4.40;99.90;;;;;;6135212;29;20031;-83
2022/02/01 14:38:31;;;;;;;3.45;2.35;;;3.90;99.90;;;;;;6132649;29;20110;-80
2022/02/01 14:44:51;;;;;;;4.88;2.38;;;4.20;99.90;;;;;;6134819;28;20039;-81
2022/02/01 14:47:51;;;;;;;5.65;2.60;;;4.00;99.90;;;;;;6115867;29;20091;-83
2022/02/01 14:50:53;;;;;;;4.00;2.40;;;4.70;99.90;;;;;;6131623;28;20046;-81
2022/02/01 14:53:53;;;;;;;5.63;2.08;;;3.90;99.90;;;;;;6131494;29;20385;-79
2022/02/01 14:56:55;;;;;;;4.05;2.25;;;4.80;99.90;;;;;;6132133;29;20031;-79
2022/02/01 15:07:22;;;;;;;5.88;2.70;;;3.70;99.90;;;;;;6133900;28;20039;-78
2022/02/01 15:13:22;;;;;;;7.35;2.88;;;3.70;99.90;;;;;;6104436;29;20058;-80
2022/02/01 15:16:22;;;;;;;7.18;3.75;;;3.70;99.90;;;;;;6115598;29;20036;-79
2022/02/01 15:19:23;;;;;;;4.60;2.25;;;4.10;99.90;;;;;;6131779;29;20043;-79
2022/02/01 15:22:24;;;;;;;8.57;2.20;;;3.80;99.90;;;;;;6115463;28;20063;-79
2022/02/01 15:25:24;;;;;;;5.85;2.85;;;3.70;99.90;;;;;;6115659;29;20031;-79
2022/02/01 15:28:25;;;;;;;7.93;2.95;;;4.90;99.90;;;;;;6131459;28;20046;-79
2022/02/01 15:31:27;;;;;;;5.72;2.28;;;4.40;99.90;;;;;;6131801;29;20019;-78
2022/02/01 15:34:31;;;;;;;4.95;2.40;;;5.10;99.90;;;;;;6113539;28;20105;-81
2022/02/01 15:37:34;;;;;;;3.45;2.17;;;3.50;99.90;;;;;;6115843;29;20047;-83
2022/02/01 15:57:13;;;;;;;3.67;2.10;;;3.90;99.90;;;;;;6132994;29;20464;-78
2022/02/01 16:00:21;;;;;;;4.57;2.13;;;3.50;99.90;;;;;;6114619;28;20123;-78
2022/02/01 16:03:25;;;;;;;3.58;2.20;;;3.60;99.90;;;;;;6131366;29;20050;-79
2022/02/01 16:06:26;;;;;;;3.80;2.53;;;3.60;99.90;;;;;;6114008;28;20765;-79
2022/02/01 16:12:38;;;;;;;3.42;2.20;;;3.60;99.90;;;;;;6114336;29;20157;-79
2022/02/01 16:15:39;;;;;;;2.92;1.55;;;3.50;99.90;;;;;;6130164;29;20154;-81
2022/02/01 16:18:41;;;;;;;4.32;2.30;;;5.30;99.90;;;;;;6114047;28;20513;-82
2022/02/01 16:21:42;;;;;;;3.72;1.67;;;3.50;99.90;;;;;;6114481;29;20517;-81
2022/02/01 16:24:43;;;;;;;3.13;2.00;;;3.50;99.90;;;;;;6113621;28;20110;-82
2022/02/01 16:27:43;;;;;;;5.75;2.08;;;3.50;99.90;;;;;;6130020;29;20054;-80
2022/02/01 16:30:44;;;;;;;4.65;1.88;;;3.50;99.90;;;;;;6113607;28;20118;-84
2022/02/01 16:33:45;;;;;;;1.77;1.65;;;3.50;99.90;;;;;;6112735;29;20129;-81
2022/02/01 16:36:47;;;;;;;2.03;1.80;;;3.50;99.90;;;;;;6128191;29;20042;-82
2022/02/01 16:39:48;;;;;;;2.83;1.58;;;3.40;99.90;;;;;;6114091;28;20046;-84
2022/02/01 16:42:48;;;;;;;2.33;1.80;;;3.50;99.90;;;;;;6130377;29;20150;-81
2022/02/01 16:45:49;;;;;;;3.88;2.08;;;3.40;99.90;;;;;;6112094;28;20039;-79
2022/02/01 16:48:51;;;;;;;4.60;1.80;;;5.60;99.90;;;;;;6129540;29;20067;-81
2022/02/01 16:51:52;;;;;;;3.40;1.90;;;4.70;99.90;;;;;;6126642;29;20370;-80
2022/02/01 16:55:04;;;;;;;1.98;1.50;;;3.50;99.90;;;;;;6127659;29;20023;-82
2022/02/01 16:58:22;;;;;;;3.47;3.05;;;4.30;99.90;;;;;;6114071;29;20544;-80
2022/02/01 17:01:23;;;;;;;3.85;2.30;;;3.50;99.90;;;;;;6132216;29;20419;-80
2022/02/01 17:04:23;;;;;;;3.33;2.50;;;3.50;99.90;;;;;;6113472;29;20031;-81
2022/02/01 17:07:24;;;;;;;2.30;2.10;;;3.90;99.90;;;;;;6113291;29;20039;-83
2022/02/01 17:10:25;;;;;;;3.58;2.10;;;3.50;99.90;;;;;;6105317;29;20095;-80
2022/02/01 17:13:49;;;;;;;2.38;2.17;;;3.50;99.90;;;;;;6101863;29;20163;-82
2022/02/01 17:17:04;;;;;;;3.33;2.30;;;3.60;99.90;;;;;;6106008;29;20070;-82
2022/02/01 17:23:24;;;;;;;3.15;1.90;;;3.60;99.90;;;;;;6107601;29;20497;-83
2022/02/01 17:26:24;;;;;;;2.78;2.08;;;3.80;99.90;;;;;;6107375;29;20133;-82
2022/02/01 17:29:25;;;;;;;2.67;1.73;;;3.60;99.90;;;;;;6082612;29;20084;-82
2022/02/01 17:32:25;;;;;;;1.75;1.65;;;3.60;99.90;;;;;;6120850;29;20059;-80
2022/02/01 17:35:26;;;;;;;3.42;1.63;;;3.50;99.90;;;;;;6096446;29;20084;-80
2022/02/01 17:38:27;;;;;;;2.42;1.90;;;3.60;99.90;;;;;;6091836;29;20040;-80
2022/02/01 17:41:31;;;;;;;1.92;1.50;;;5.10;99.90;;;;;;6116198;29;20083;-82
2022/02/01 17:44:31;;;;;;;1.58;1.48;;;4.00;99.90;;;;;;6090115;29;20035;-85
2022/02/01 17:47:32;;;;;;;1.10;1.10;;;3.60;99.90;;;;;;6085746;29;20459;-83
2022/02/01 17:50:44;;;;;;;26.15;11.07;;;4.00;99.90;;;;;;6082265;29;20463;-82
2022/02/01 17:56:46;;;;;;;1.95;1.70;;;3.60;99.90;;;;;;6117225;29;20989;-82
2022/02/01 17:59:48;;;;;;;2.50;1.53;;;3.70;99.90;;;;;;6114486;29;20059;-80
2022/02/01 18:02:49;;;;;;;1.60;1.50;;;4.60;99.90;;;;;;6098239;29;20030;-79
2022/02/01 18:05:49;;;;;;;1.60;1.50;;;3.70;99.90;;;;;;6089051;29;20036;-81
2022/02/01 18:08:53;;;;;;;1.67;1.58;;;3.80;99.90;;;;;;6086576;29;20411;-80
2022/02/01 18:14:58;;;;;;;2.37;1.67;;;5.70;99.90;;;;;;6125525;29;20032;-80
2022/02/01 18:18:00;;;;;;;1.48;1.05;;;3.60;99.90;;;;;;6109851;29;20044;-81
2022/02/01 18:21:04;;;;;;;1.55;1.45;;;4.00;99.90;;;;;;6125310;29;20020;-80
2022/02/01 18:24:05;;;;;;;1.70;1.20;;;3.70;99.90;;;;;;6125358;29;20035;-82
2022/02/01 18:27:06;;;;;;;1.48;1.38;;;3.70;99.90;;;;;;6109295;29;20181;-81
2022/02/01 18:30:18;;;;;;;1.67;1.58;;;3.80;99.90;;;;;;6125116;29;20039;-81
2022/02/01 18:33:18;;;;;;;12.52;5.88;;;3.70;99.90;;;;;;6110406;29;20052;-79
2022/02/01 18:36:19;;;;;;;16.73;7.68;;;3.70;99.90;;;;;;6108737;29;20028;-80
2022/02/01 18:39:20;;;;;;;6.57;4.05;;;3.70;99.90;;;;;;6108929;29;20047;-84
2022/02/01 18:42:29;;;;;;;5.78;4.20;;;3.20;99.90;;;;;;6124294;29;20043;-79
2022/02/01 18:45:32;;;;;;;4.78;2.75;;;3.70;99.90;;;;;;6110257;29;20083;-80
2022/02/01 18:48:33;;;;;;;;;;;3.90;99.90;;;;;;6109105;29;20036;-81
2022/02/01 18:54:55;;;;;;;4.55;2.97;;;3.10;99.90;;;;;;6124633;29;20054;-82